KVJI/VJI METAR and TAF weather

Enter ICAO airport designator
Station Type Date Time Source
KVJI METAR 2019/04/25 17:35 UTC NOAA

KVJI 251735Z AUTO 25006KT 10SM SCT110 23/12 A2990 RMK AO2 T02260117


Station Type Date Time Source
KVJI Decoded METAR 2019/04/25 17:35 UTC NOAA

Abingdon, VA, United States (KVJI) 36-41N 082-02W
Apr 25, 2019 - 01:35 PM EDT / 2019.04.25 1735 UTC
Wind: from the WSW (250 degrees) at 7 MPH (6 KT):0
Visibility: 10 mile(s):0
Sky conditions: partly cloudy
Temperature: 72.7 F (22.6 C)
Dew Point: 53.1 F (11.7 C)
Relative Humidity: 50%
Pressure (altimeter): 29.9 in. Hg (1012 hPa)
ob: KVJI 251735Z AUTO 25006KT 10SM SCT110 23/12 A2990 RMK AO2 T02260117
cycle: 17

Station Type Date Time Source
KVJI TAF UTC NOAA

Error!

Example: see airport list